< < Back
Terminal Aerodrome Forecast


Current Version              Previous Versions:   1  2  3  4  5  6  7  8  9  

Terminal Aerodrome Forecast

757
FTUS44 KOHX 270520
TAFCSV
TAF
KCSV 270520Z 2706/2806 00000KT P6SM SCT250
      TEMPO 2708/2712 4SM BR
     FM271300 VRB03KT P6SM SCT050 BKN250 PROB30 2722/2802 6SM -TSRA
      BKN050CB
     FM280200 VRB02KT P6SM SCT060 BKN250=

Latest METAR

219
SAUS70 KWBC 270600 RRF
MTRCSV
METAR KCSV 270553Z AUTO 00000KT 10SM CLR 22/21 A3017 RMK AO2 SLP191
T02220211 10267 20222 403220194 50001


USA.gov is the U.S. government's official web portal to all federal, state and local government web resources and services.